createdAt,value
2022-11-09T00:02:01.950Z,21.4
2022-11-09T00:07:23.339Z,21.4
2022-11-09T00:12:49.510Z,21.4
2022-11-09T00:18:27.934Z,21.4
2022-11-09T00:23:55.455Z,21.5
2022-11-09T00:29:01.623Z,21.4
2022-11-09T00:34:41.085Z,21.5
2022-11-09T00:40:02.438Z,21.5
2022-11-09T00:45:40.586Z,21.5
2022-11-09T00:51:18.359Z,21.5
2022-11-09T00:56:54.248Z,21.5
2022-11-09T01:02:32.511Z,21.5
2022-11-09T01:08:12.965Z,21.6
2022-11-09T01:13:50.826Z,21.5
2022-11-09T01:19:29.081Z,21.5
2022-11-09T01:24:35.802Z,21.5
2022-11-09T01:30:12.749Z,21.6
2022-11-09T01:35:35.273Z,21.5
2022-11-09T01:41:12.537Z,21.6
2022-11-09T01:46:49.273Z,21.6
2022-11-09T01:52:27.322Z,21.6
2022-11-09T01:58:05.443Z,21.6
2022-11-09T02:03:26.281Z,21.6
2022-11-09T02:09:04.612Z,21.6
2022-11-09T02:14:42.914Z,21.6
2022-11-09T02:20:03.871Z,21.6
2022-11-09T02:25:45.571Z,21.6
2022-11-09T02:31:07.998Z,21.6
2022-11-09T02:36:29.504Z,21.6
2022-11-09T02:41:51.831Z,21.6
2022-11-09T02:47:16.375Z,21.6
2022-11-09T02:52:53.563Z,21.6
2022-11-09T02:58:15.695Z,21.6
2022-11-09T03:03:22.365Z,21.6
2022-11-09T03:08:44.036Z,21.6
2022-11-09T03:14:21.561Z,21.6
2022-11-09T03:19:43.359Z,21.6
2022-11-09T03:24:48.566Z,21.6
2022-11-09T03:29:55.281Z,21.6
2022-11-09T03:35:03.459Z,21.6
2022-11-09T03:40:09.357Z,21.6
2022-11-09T03:45:17.290Z,21.6
2022-11-09T03:50:24.003Z,21.7
2022-11-09T03:55:44.561Z,21.7
2022-11-09T04:00:51.159Z,21.7
2022-11-09T04:05:42.351Z,21.7
2022-11-09T04:10:33.511Z,21.7
2022-11-09T04:15:39.223Z,21.7
2022-11-09T04:20:46.599Z,21.7
2022-11-09T04:25:56.625Z,21.7
2022-11-09T04:31:03.110Z,21.7
2022-11-09T04:36:29.062Z,21.7
2022-11-09T04:41:20.610Z,21.7
2022-11-09T04:46:41.731Z,21.7
2022-11-09T04:51:18.467Z,21.7
2022-11-09T04:56:28.566Z,21.6
2022-11-09T05:01:35.387Z,21.3
2022-11-09T05:06:26.320Z,21.1
2022-11-09T05:11:17.877Z,20.9
2022-11-09T05:16:14.133Z,20.8
2022-11-09T05:21:05.694Z,20.8
2022-11-09T05:26:11.717Z,20.6
2022-11-09T05:31:34.916Z,20.6
2022-11-09T05:36:26.887Z,20.6
2022-11-09T05:41:35.885Z,20.5
2022-11-09T05:46:46.219Z,20.5
2022-11-09T05:52:08.277Z,20.5
2022-11-09T05:56:43.001Z,20.5
2022-11-09T06:01:34.176Z,20.4
2022-11-09T06:06:26.170Z,20.5
2022-11-09T06:11:23.476Z,21.3
2022-11-09T06:15:59.359Z,23.2
2022-11-09T06:20:35.410Z,25.1
2022-11-09T06:25:32.563Z,26.8
2022-11-09T06:30:08.667Z,27.9
2022-11-09T06:35:00.390Z,29
2022-11-09T06:39:40.201Z,29.8
2022-11-09T06:44:17.481Z,30.4
2022-11-09T06:49:11.236Z,31.1
2022-11-09T06:53:47.182Z,31.6
2022-11-09T06:58:07.394Z,31.9
2022-11-09T07:02:34.075Z,32.1
2022-11-09T07:07:28.089Z,32.2
2022-11-09T07:12:19.454Z,32.3
2022-11-09T07:17:11.132Z,32.2
2022-11-09T07:22:04.048Z,31.5
2022-11-09T07:26:40.219Z,31.3
2022-11-09T07:31:00.381Z,31.2
2022-11-09T07:36:34.712Z,31.1
2022-11-09T07:40:55.291Z,31.1
2022-11-09T07:45:20.242Z,31.1
2022-11-09T07:50:11.392Z,31.1
2022-11-09T07:55:08.317Z,31.1
2022-11-09T07:59:44.504Z,31.1
2022-11-09T08:04:36.726Z,31.1
2022-11-09T08:09:11.544Z,31.1
2022-11-09T08:13:47.539Z,31.1
2022-11-09T08:18:39.577Z,31.1
2022-11-09T08:23:36.586Z,31.1
2022-11-09T08:28:14.905Z,31.1
2022-11-09T08:32:50.598Z,31.1
2022-11-09T08:37:31.852Z,31.1
2022-11-09T08:42:08.194Z,31.1
2022-11-09T08:46:43.308Z,31.1
2022-11-09T08:51:18.977Z,31.1
2022-11-09T08:56:10.311Z,31
2022-11-09T09:01:17.623Z,29.5
2022-11-09T09:06:29.841Z,28.7
2022-11-09T09:11:07.468Z,37.5
2022-11-09T09:16:15.017Z,42.4
2022-11-09T09:21:12.460Z,38.5
2022-11-09T09:26:03.068Z,36.4
2022-11-09T09:31:13.084Z,34.9
2022-11-09T09:36:38.744Z,33.7
2022-11-09T09:41:47.444Z,32.7
2022-11-09T09:47:09.641Z,31.9
2022-11-09T09:52:33.149Z,31.2
2022-11-09T09:58:16.454Z,30.3
2022-11-09T10:03:38.944Z,46.6
2022-11-09T10:09:02.189Z,41.9
2022-11-09T10:14:29.981Z,37.9
2022-11-09T10:20:07.640Z,35.9
2022-11-09T10:26:36.786Z,34.4
2022-11-09T10:32:25.725Z,32.9
2022-11-09T10:38:03.845Z,48.8
2022-11-09T10:43:27.246Z,41.9
2022-11-09T10:49:05.517Z,38.1
2022-11-09T10:54:43.755Z,36.1
2022-11-09T11:00:45.462Z,34.6
2022-11-09T11:05:37.257Z,33.4
2022-11-09T11:10:46.994Z,49.5
2022-11-09T11:16:53.615Z,43.6
2022-11-09T11:22:06.926Z,39.6
2022-11-09T11:27:44.931Z,37.4
2022-11-09T11:33:24.410Z,35.9
2022-11-09T11:39:33.367Z,34.5
2022-11-09T11:45:44.451Z,33.4
2022-11-09T11:51:22.434Z,32.3
2022-11-09T11:57:06.798Z,47.3
2022-11-09T12:02:28.997Z,44.8
2022-11-09T12:07:57.470Z,40.3
2022-11-09T12:13:35.279Z,37.8
2022-11-09T12:19:13.878Z,36.2
2022-11-09T12:24:42.081Z,34.9
2022-11-09T12:30:24.698Z,33.8
2022-11-09T12:35:37.475Z,32.9
2022-11-09T12:40:59.909Z,32.2
2022-11-09T12:46:24.170Z,31.7
2022-11-09T12:51:46.045Z,31.3
2022-11-09T12:57:08.196Z,30.9
2022-11-09T13:02:33.524Z,30.7
2022-11-09T13:07:58.208Z,30.5
2022-11-09T13:13:27.115Z,30.3
2022-11-09T13:18:52.232Z,30.1
2022-11-09T13:25:14.215Z,30
2022-11-09T13:30:52.254Z,29.8
2022-11-09T13:36:31.208Z,29.8
2022-11-09T13:42:09.468Z,29.6
2022-11-09T13:47:34.718Z,29.5
2022-11-09T13:52:41.233Z,29.4
2022-11-09T13:58:22.925Z,29.4
2022-11-09T14:04:05.345Z,29.3
2022-11-09T14:09:46.586Z,29.2
2022-11-09T14:15:26.186Z,29.1
2022-11-09T14:21:04.527Z,29.1
2022-11-09T14:26:41.881Z,29
2022-11-09T14:32:19.529Z,28.9
2022-11-09T14:37:58.045Z,28.9
2022-11-09T14:43:35.934Z,28.9
2022-11-09T14:49:18.816Z,28.8
2022-11-09T14:55:02.255Z,28.8
2022-11-09T15:00:45.746Z,28.8
2022-11-09T15:06:24.794Z,28.8
2022-11-09T15:11:52.177Z,28.7
2022-11-09T15:17:34.038Z,28.7
2022-11-09T15:23:03.610Z,28.6
2022-11-09T15:28:12.569Z,28.6
2022-11-09T15:33:37.192Z,28.6
2022-11-09T15:38:44.533Z,28.6
2022-11-09T15:44:09.580Z,28.5
2022-11-09T15:49:35.508Z,28.5
2022-11-09T15:55:02.899Z,28.5
2022-11-09T16:00:47.563Z,28.3
2022-11-09T16:06:09.507Z,28.2
2022-11-09T16:11:50.971Z,28.2
2022-11-09T16:17:18.596Z,28.1
2022-11-09T16:22:56.097Z,28.1
2022-11-09T16:29:00.228Z,28.1
2022-11-09T16:35:02.609Z,28.1
2022-11-09T16:40:59.364Z,28
2022-11-09T16:46:39.492Z,28
2022-11-09T16:52:17.793Z,28
2022-11-09T16:57:58.164Z,27.9
2022-11-09T17:03:50.416Z,27.4
2022-11-09T17:09:29.033Z,27.1
2022-11-09T17:14:51.204Z,26.8
2022-11-09T17:20:30.315Z,25.9
2022-11-09T17:26:10.591Z,25.3
2022-11-09T17:31:18.995Z,24.8
2022-11-09T17:37:13.293Z,24.6
2022-11-09T17:42:20.306Z,24.4
2022-11-09T17:47:42.733Z,24.3
2022-11-09T17:52:51.307Z,24.1
2022-11-09T17:58:01.534Z,23.8
2022-11-09T18:03:24.257Z,23.5
2022-11-09T18:14:39.218Z,22.9
2022-11-09T18:20:01.009Z,22.8
2022-11-09T18:25:26.597Z,22.7
2022-11-09T18:31:10.594Z,22.6
2022-11-09T18:36:48.620Z,22.6
2022-11-09T18:42:13.245Z,22.4
2022-11-09T18:47:38.886Z,22.4
2022-11-09T18:53:01.083Z,22.4
2022-11-09T18:58:09.417Z,22.3
2022-11-09T19:03:17.028Z,22.3
2022-11-09T19:08:40.592Z,22.3
2022-11-09T19:14:02.758Z,22.3
2022-11-09T19:19:10.073Z,22.3
2022-11-09T19:24:36.786Z,22.3
2022-11-09T19:35:13.959Z,22.1
2022-11-09T19:41:46.482Z,22
2022-11-09T19:47:25.998Z,21.9
2022-11-09T19:52:17.323Z,21.9
2022-11-09T19:57:41.365Z,21.9
2022-11-09T20:03:19.144Z,21.9
2022-11-09T20:08:58.003Z,21.9
2022-11-09T20:14:37.663Z,22.4
2022-11-09T20:20:00.218Z,24.9
2022-11-09T20:30:13.970Z,30.4
2022-11-09T20:35:23.169Z,32.4
2022-11-09T20:40:36.552Z,34.1
2022-11-09T20:45:58.461Z,35.3
2022-11-09T20:52:00.001Z,36.4
2022-11-09T20:56:57.332Z,37.2
2022-11-09T21:01:33.337Z,37.9
2022-11-09T21:06:27.057Z,38.6
2022-11-09T21:11:02.873Z,39.2
2022-11-09T21:15:53.828Z,39.4
2022-11-09T21:21:00.463Z,39.5
2022-11-09T21:26:09.477Z,39.6
2022-11-09T21:31:16.710Z,39.6
2022-11-09T21:36:23.592Z,39.7
2022-11-09T21:41:45.286Z,39.7
2022-11-09T21:47:07.789Z,39.7
2022-11-09T21:52:13.985Z,39.7
2022-11-09T21:57:20.039Z,39.7
2022-11-09T22:02:27.458Z,39.6
2022-11-09T22:07:19.150Z,39.6
2022-11-09T22:12:57.226Z,39.5
2022-11-09T22:17:48.439Z,39.5
2022-11-09T22:22:54.448Z,39.4
2022-11-09T22:28:23.137Z,39.4
2022-11-09T22:33:45.830Z,39.4
2022-11-09T22:38:51.836Z,39.3
2022-11-09T22:44:19.237Z,39.3
2022-11-09T22:49:41.454Z,39.2
2022-11-09T22:55:07.608Z,39.2
2022-11-09T23:00:29.581Z,39.1
2022-11-09T23:06:07.449Z,39.1
2022-11-09T23:11:28.711Z,38.9
2022-11-09T23:17:06.262Z,38.9
2022-11-09T23:22:31.321Z,38.8
2022-11-09T23:28:08.517Z,38.8
2022-11-09T23:33:46.273Z,38.7
2022-11-09T23:39:14.777Z,38.6
2022-11-09T23:44:55.231Z,38.6
2022-11-09T23:50:16.479Z,38.4
2022-11-09T23:55:22.987Z,38.4
